sensor_id;sensor_type;location;lat;lon;timestamp;P1;durP1;ratioP1;P2;durP2;ratioP2
17365;SDS011;8800;50.118;9.900;2023-10-13T00:01:20;16.08;;;9.25;;
17365;SDS011;8800;50.118;9.900;2023-10-13T00:03:47;16.92;;;8.98;;
17365;SDS011;8800;50.118;9.900;2023-10-13T00:06:13;14.30;;;8.48;;
17365;SDS011;8800;50.118;9.900;2023-10-13T00:08:41;17.38;;;8.35;;
17365;SDS011;8800;50.118;9.900;2023-10-13T00:11:16;16.92;;;9.10;;
17365;SDS011;8800;50.118;9.900;2023-10-13T00:13:49;16.73;;;8.50;;
17365;SDS011;8800;50.118;9.900;2023-10-13T00:16:16;16.52;;;8.93;;
17365;SDS011;8800;50.118;9.900;2023-10-13T00:18:46;16.73;;;8.38;;
17365;SDS011;8800;50.118;9.900;2023-10-13T00:21:14;17.58;;;8.05;;
17365;SDS011;8800;50.118;9.900;2023-10-13T00:23:57;16.90;;;8.20;;
17365;SDS011;8800;50.118;9.900;2023-10-13T00:26:28;18.88;;;8.27;;
17365;SDS011;8800;50.118;9.900;2023-10-13T00:28:55;16.48;;;8.10;;
17365;SDS011;8800;50.118;9.900;2023-10-13T00:31:34;12.68;;;7.25;;
17365;SDS011;8800;50.118;9.900;2023-10-13T00:34:04;16.00;;;8.45;;
17365;SDS011;8800;50.118;9.900;2023-10-13T00:36:36;10.73;;;7.60;;
17365;SDS011;8800;50.118;9.900;2023-10-13T00:39:12;18.02;;;7.90;;
17365;SDS011;8800;50.118;9.900;2023-10-13T00:41:43;17.05;;;7.90;;
17365;SDS011;8800;50.118;9.900;2023-10-13T00:44:18;17.05;;;8.07;;
17365;SDS011;8800;50.118;9.900;2023-10-13T00:46:50;16.02;;;7.53;;
17365;SDS011;8800;50.118;9.900;2023-10-13T00:49:20;16.70;;;8.07;;
17365;SDS011;8800;50.118;9.900;2023-10-13T00:51:48;15.32;;;8.25;;
17365;SDS011;8800;50.118;9.900;2023-10-13T00:54:15;14.65;;;7.78;;
17365;SDS011;8800;50.118;9.900;2023-10-13T00:56:56;18.63;;;8.32;;
17365;SDS011;8800;50.118;9.900;2023-10-13T00:59:33;18.17;;;8.68;;
17365;SDS011;8800;50.118;9.900;2023-10-13T01:02:11;18.80;;;8.82;;
17365;SDS011;8800;50.118;9.900;2023-10-13T01:05:03;19.77;;;9.15;;
17365;SDS011;8800;50.118;9.900;2023-10-13T01:07:30;18.73;;;9.65;;
17365;SDS011;8800;50.118;9.900;2023-10-13T01:09:58;15.13;;;9.25;;
17365;SDS011;8800;50.118;9.900;2023-10-13T01:12:26;18.13;;;9.27;;
17365;SDS011;8800;50.118;9.900;2023-10-13T01:14:54;23.60;;;9.57;;
17365;SDS011;8800;50.118;9.900;2023-10-13T01:17:32;24.23;;;11.25;;
17365;SDS011;8800;50.118;9.900;2023-10-13T01:19:59;17.95;;;9.30;;
17365;SDS011;8800;50.118;9.900;2023-10-13T01:22:25;23.90;;;11.23;;
17365;SDS011;8800;50.118;9.900;2023-10-13T01:24:55;28.88;;;11.55;;
17365;SDS011;8800;50.118;9.900;2023-10-13T01:27:30;24.52;;;12.38;;
17365;SDS011;8800;50.118;9.900;2023-10-13T01:29:57;29.63;;;12.02;;
17365;SDS011;8800;50.118;9.900;2023-10-13T01:32:23;20.08;;;10.98;;
17365;SDS011;8800;50.118;9.900;2023-10-13T01:34:52;23.88;;;11.70;;
17365;SDS011;8800;50.118;9.900;2023-10-13T01:37:21;26.52;;;8.88;;
17365;SDS011;8800;50.118;9.900;2023-10-13T01:39:50;29.48;;;11.90;;
17365;SDS011;8800;50.118;9.900;2023-10-13T01:42:17;23.60;;;10.93;;
17365;SDS011;8800;50.118;9.900;2023-10-13T01:44:46;28.30;;;10.90;;
17365;SDS011;8800;50.118;9.900;2023-10-13T01:47:12;26.17;;;10.52;;
17365;SDS011;8800;50.118;9.900;2023-10-13T01:49:41;22.85;;;10.70;;
17365;SDS011;8800;50.118;9.900;2023-10-13T01:52:07;22.98;;;10.73;;
17365;SDS011;8800;50.118;9.900;2023-10-13T01:54:36;23.33;;;10.27;;
17365;SDS011;8800;50.118;9.900;2023-10-13T01:57:05;25.17;;;12.65;;
17365;SDS011;8800;50.118;9.900;2023-10-13T01:59:34;17.58;;;11.13;;
17365;SDS011;8800;50.118;9.900;2023-10-13T02:02:09;20.73;;;10.98;;
17365;SDS011;8800;50.118;9.900;2023-10-13T02:04:38;20.60;;;11.10;;
17365;SDS011;8800;50.118;9.900;2023-10-13T02:07:07;19.23;;;10.05;;
17365;SDS011;8800;50.118;9.900;2023-10-13T02:09:39;24.05;;;10.57;;
17365;SDS011;8800;50.118;9.900;2023-10-13T02:12:07;21.23;;;10.70;;
17365;SDS011;8800;50.118;9.900;2023-10-13T02:14:36;21.77;;;10.05;;
17365;SDS011;8800;50.118;9.900;2023-10-13T02:17:03;17.05;;;10.18;;
17365;SDS011;8800;50.118;9.900;2023-10-13T02:19:41;19.70;;;10.10;;
17365;SDS011;8800;50.118;9.900;2023-10-13T02:22:09;18.45;;;10.57;;
17365;SDS011;8800;50.118;9.900;2023-10-13T02:24:37;22.33;;;11.80;;
17365;SDS011;8800;50.118;9.900;2023-10-13T02:27:08;16.98;;;10.00;;
17365;SDS011;8800;50.118;9.900;2023-10-13T02:29:40;21.92;;;10.85;;
17365;SDS011;8800;50.118;9.900;2023-10-13T02:32:07;19.85;;;10.35;;
17365;SDS011;8800;50.118;9.900;2023-10-13T02:34:38;18.58;;;9.50;;
17365;SDS011;8800;50.118;9.900;2023-10-13T02:37:09;16.70;;;9.45;;
17365;SDS011;8800;50.118;9.900;2023-10-13T02:39:41;22.48;;;10.45;;
17365;SDS011;8800;50.118;9.900;2023-10-13T02:42:06;17.45;;;9.95;;
17365;SDS011;8800;50.118;9.900;2023-10-13T02:44:33;18.17;;;10.73;;
17365;SDS011;8800;50.118;9.900;2023-10-13T02:47:03;19.70;;;10.15;;
17365;SDS011;8800;50.118;9.900;2023-10-13T02:49:39;15.35;;;9.52;;
17365;SDS011;8800;50.118;9.900;2023-10-13T02:52:08;20.75;;;10.68;;
17365;SDS011;8800;50.118;9.900;2023-10-13T02:54:36;17.33;;;10.27;;
17365;SDS011;8800;50.118;9.900;2023-10-13T02:57:08;18.83;;;10.00;;
17365;SDS011;8800;50.118;9.900;2023-10-13T02:59:33;19.70;;;11.35;;
17365;SDS011;8800;50.118;9.900;2023-10-13T03:02:07;18.20;;;10.38;;
17365;SDS011;8800;50.118;9.900;2023-10-13T03:04:43;21.45;;;11.40;;
17365;SDS011;8800;50.118;9.900;2023-10-13T03:07:12;22.95;;;12.25;;
17365;SDS011;8800;50.118;9.900;2023-10-13T03:09:41;23.98;;;11.80;;
17365;SDS011;8800;50.118;9.900;2023-10-13T03:12:16;22.20;;;11.57;;
17365;SDS011;8800;50.118;9.900;2023-10-13T03:14:41;19.45;;;10.70;;
17365;SDS011;8800;50.118;9.900;2023-10-13T03:17:14;20.10;;;11.43;;
17365;SDS011;8800;50.118;9.900;2023-10-13T03:19:43;21.92;;;11.13;;
17365;SDS011;8800;50.118;9.900;2023-10-13T03:22:15;24.05;;;11.05;;
17365;SDS011;8800;50.118;9.900;2023-10-13T03:24:42;21.42;;;11.25;;
17365;SDS011;8800;50.118;9.900;2023-10-13T03:27:12;20.02;;;11.32;;
17365;SDS011;8800;50.118;9.900;2023-10-13T03:29:41;22.88;;;10.98;;
17365;SDS011;8800;50.118;9.900;2023-10-13T03:32:09;17.35;;;10.65;;
17365;SDS011;8800;50.118;9.900;2023-10-13T03:34:42;22.67;;;11.10;;
17365;SDS011;8800;50.118;9.900;2023-10-13T03:37:32;23.15;;;11.80;;
17365;SDS011;8800;50.118;9.900;2023-10-13T03:40:04;20.65;;;10.95;;
17365;SDS011;8800;50.118;9.900;2023-10-13T03:42:41;23.88;;;11.85;;
17365;SDS011;8800;50.118;9.900;2023-10-13T03:45:08;18.98;;;11.05;;
17365;SDS011;8800;50.118;9.900;2023-10-13T03:47:36;22.10;;;11.20;;
17365;SDS011;8800;50.118;9.900;2023-10-13T03:50:05;22.98;;;11.27;;
17365;SDS011;8800;50.118;9.900;2023-10-13T03:52:41;21.02;;;10.45;;
17365;SDS011;8800;50.118;9.900;2023-10-13T03:55:09;23.35;;;10.85;;
17365;SDS011;8800;50.118;9.900;2023-10-13T03:57:43;22.40;;;11.07;;
17365;SDS011;8800;50.118;9.900;2023-10-13T04:00:16;22.55;;;11.10;;
17365;SDS011;8800;50.118;9.900;2023-10-13T04:02:48;21.90;;;11.68;;
17365;SDS011;8800;50.118;9.900;2023-10-13T04:05:36;19.90;;;11.57;;
17365;SDS011;8800;50.118;9.900;2023-10-13T04:08:06;23.10;;;12.27;;
17365;SDS011;8800;50.118;9.900;2023-10-13T04:10:54;25.63;;;12.00;;
17365;SDS011;8800;50.118;9.900;2023-10-13T04:13:38;28.90;;;13.43;;
17365;SDS011;8800;50.118;9.900;2023-10-13T04:16:30;25.95;;;12.70;;
17365;SDS011;8800;50.118;9.900;2023-10-13T04:19:16;31.13;;;13.23;;
17365;SDS011;8800;50.118;9.900;2023-10-13T04:21:49;29.17;;;12.95;;
17365;SDS011;8800;50.118;9.900;2023-10-13T04:24:25;22.77;;;12.93;;
17365;SDS011;8800;50.118;9.900;2023-10-13T04:27:24;25.90;;;13.85;;
17365;SDS011;8800;50.118;9.900;2023-10-13T04:30:06;35.03;;;13.82;;
17365;SDS011;8800;50.118;9.900;2023-10-13T04:32:51;40.88;;;13.68;;
17365;SDS011;8800;50.118;9.900;2023-10-13T04:35:32;26.27;;;14.10;;
17365;SDS011;8800;50.118;9.900;2023-10-13T04:38:14;22.85;;;12.40;;
17365;SDS011;8800;50.118;9.900;2023-10-13T04:40:45;25.08;;;13.00;;
17365;SDS011;8800;50.118;9.900;2023-10-13T04:43:26;25.13;;;13.63;;
17365;SDS011;8800;50.118;9.900;2023-10-13T04:46:21;22.25;;;12.68;;
17365;SDS011;8800;50.118;9.900;2023-10-13T04:49:00;23.60;;;13.13;;
17365;SDS011;8800;50.118;9.900;2023-10-13T04:51:35;25.52;;;12.90;;
17365;SDS011;8800;50.118;9.900;2023-10-13T04:54:17;26.77;;;13.55;;
17365;SDS011;8800;50.118;9.900;2023-10-13T04:56:58;26.35;;;12.63;;
17365;SDS011;8800;50.118;9.900;2023-10-13T04:59:57;23.98;;;12.98;;
17365;SDS011;8800;50.118;9.900;2023-10-13T05:02:41;27.48;;;12.95;;
17365;SDS011;8800;50.118;9.900;2023-10-13T05:05:42;24.50;;;13.35;;
17365;SDS011;8800;50.118;9.900;2023-10-13T05:08:12;21.95;;;13.43;;
17365;SDS011;8800;50.118;9.900;2023-10-13T05:10:57;24.20;;;12.68;;
17365;SDS011;8800;50.118;9.900;2023-10-13T05:13:55;24.77;;;12.48;;
17365;SDS011;8800;50.118;9.900;2023-10-13T05:16:35;24.83;;;13.20;;
17365;SDS011;8800;50.118;9.900;2023-10-13T05:19:19;29.58;;;13.55;;
17365;SDS011;8800;50.118;9.900;2023-10-13T05:22:03;35.42;;;13.07;;
17365;SDS011;8800;50.118;9.900;2023-10-13T05:24:47;29.75;;;13.13;;
17365;SDS011;8800;50.118;9.900;2023-10-13T05:27:32;25.40;;;13.40;;
17365;SDS011;8800;50.118;9.900;2023-10-13T05:30:25;29.20;;;12.98;;
17365;SDS011;8800;50.118;9.900;2023-10-13T05:33:09;44.20;;;14.38;;
17365;SDS011;8800;50.118;9.900;2023-10-13T05:35:53;23.98;;;13.23;;
17365;SDS011;8800;50.118;9.900;2023-10-13T05:38:40;41.38;;;13.75;;
17365;SDS011;8800;50.118;9.900;2023-10-13T05:41:30;28.08;;;13.35;;
17365;SDS011;8800;50.118;9.900;2023-10-13T05:44:16;47.25;;;14.40;;
17365;SDS011;8800;50.118;9.900;2023-10-13T05:47:18;34.03;;;14.15;;
17365;SDS011;8800;50.118;9.900;2023-10-13T05:50:12;34.78;;;15.77;;
17365;SDS011;8800;50.118;9.900;2023-10-13T05:52:54;40.03;;;15.75;;
17365;SDS011;8800;50.118;9.900;2023-10-13T05:55:39;41.85;;;15.27;;
17365;SDS011;8800;50.118;9.900;2023-10-13T05:58:23;27.88;;;15.23;;
17365;SDS011;8800;50.118;9.900;2023-10-13T06:01:12;56.97;;;14.80;;
17365;SDS011;8800;50.118;9.900;2023-10-13T06:03:57;33.33;;;13.95;;
17365;SDS011;8800;50.118;9.900;2023-10-13T06:06:41;33.03;;;14.85;;
17365;SDS011;8800;50.118;9.900;2023-10-13T06:09:22;28.77;;;14.43;;
17365;SDS011;8800;50.118;9.900;2023-10-13T06:12:06;33.75;;;13.85;;
17365;SDS011;8800;50.118;9.900;2023-10-13T06:14:50;29.10;;;13.55;;
17365;SDS011;8800;50.118;9.900;2023-10-13T06:17:36;25.63;;;13.40;;
17365;SDS011;8800;50.118;9.900;2023-10-13T06:20:20;31.15;;;14.82;;
17365;SDS011;8800;50.118;9.900;2023-10-13T06:23:04;32.28;;;15.52;;
17365;SDS011;8800;50.118;9.900;2023-10-13T06:25:50;25.23;;;14.82;;
17365;SDS011;8800;50.118;9.900;2023-10-13T06:28:34;25.15;;;14.73;;
17365;SDS011;8800;50.118;9.900;2023-10-13T06:31:08;27.95;;;14.70;;
17365;SDS011;8800;50.118;9.900;2023-10-13T06:33:40;31.75;;;15.05;;
17365;SDS011;8800;50.118;9.900;2023-10-13T06:36:10;36.17;;;15.52;;
17365;SDS011;8800;50.118;9.900;2023-10-13T06:38:37;30.67;;;16.85;;
17365;SDS011;8800;50.118;9.900;2023-10-13T06:41:04;33.63;;;17.45;;
17365;SDS011;8800;50.118;9.900;2023-10-13T06:43:31;28.55;;;15.75;;
17365;SDS011;8800;50.118;9.900;2023-10-13T06:46:04;29.45;;;16.73;;
17365;SDS011;8800;50.118;9.900;2023-10-13T06:48:32;28.27;;;16.25;;
17365;SDS011;8800;50.118;9.900;2023-10-13T06:51:01;27.85;;;15.60;;
17365;SDS011;8800;50.118;9.900;2023-10-13T06:53:42;28.33;;;17.05;;
17365;SDS011;8800;50.118;9.900;2023-10-13T06:56:12;31.90;;;17.55;;
17365;SDS011;8800;50.118;9.900;2023-10-13T06:58:43;34.10;;;18.60;;
17365;SDS011;8800;50.118;9.900;2023-10-13T07:01:09;34.13;;;18.38;;
17365;SDS011;8800;50.118;9.900;2023-10-13T07:03:40;27.77;;;18.20;;
17365;SDS011;8800;50.118;9.900;2023-10-13T07:06:09;28.63;;;18.40;;
17365;SDS011;8800;50.118;9.900;2023-10-13T07:08:43;29.30;;;17.20;;
17365;SDS011;8800;50.118;9.900;2023-10-13T07:11:17;25.42;;;14.65;;
17365;SDS011;8800;50.118;9.900;2023-10-13T07:13:58;24.52;;;14.05;;
17365;SDS011;8800;50.118;9.900;2023-10-13T07:16:26;24.30;;;13.32;;
17365;SDS011;8800;50.118;9.900;2023-10-13T07:19:00;22.15;;;12.73;;
17365;SDS011;8800;50.118;9.900;2023-10-13T07:21:33;22.23;;;12.38;;
17365;SDS011;8800;50.118;9.900;2023-10-13T07:23:59;18.02;;;12.02;;
17365;SDS011;8800;50.118;9.900;2023-10-13T07:26:36;20.63;;;11.73;;
17365;SDS011;8800;50.118;9.900;2023-10-13T07:29:08;20.17;;;12.18;;
17365;SDS011;8800;50.118;9.900;2023-10-13T07:31:35;22.13;;;9.32;;
17365;SDS011;8800;50.118;9.900;2023-10-13T07:34:03;16.52;;;9.23;;
17365;SDS011;8800;50.118;9.900;2023-10-13T07:36:39;14.40;;;9.00;;
17365;SDS011;8800;50.118;9.900;2023-10-13T07:39:08;15.43;;;8.88;;
17365;SDS011;8800;50.118;9.900;2023-10-13T07:41:47;17.00;;;9.40;;
17365;SDS011;8800;50.118;9.900;2023-10-13T07:44:17;13.93;;;8.77;;
17365;SDS011;8800;50.118;9.900;2023-10-13T07:46:45;13.90;;;6.95;;
17365;SDS011;8800;50.118;9.900;2023-10-13T07:49:13;14.32;;;7.18;;
17365;SDS011;8800;50.118;9.900;2023-10-13T07:51:42;12.68;;;6.82;;
17365;SDS011;8800;50.118;9.900;2023-10-13T07:54:11;15.10;;;6.78;;
17365;SDS011;8800;50.118;9.900;2023-10-13T07:56:38;10.30;;;6.13;;
17365;SDS011;8800;50.118;9.900;2023-10-13T07:59:05;16.08;;;6.57;;
17365;SDS011;8800;50.118;9.900;2023-10-13T08:01:33;12.73;;;6.18;;
17365;SDS011;8800;50.118;9.900;2023-10-13T08:04:00;12.02;;;6.40;;
17365;SDS011;8800;50.118;9.900;2023-10-13T08:06:36;12.63;;;6.55;;
17365;SDS011;8800;50.118;9.900;2023-10-13T08:09:06;12.57;;;6.85;;
17365;SDS011;8800;50.118;9.900;2023-10-13T08:11:34;14.23;;;6.32;;
17365;SDS011;8800;50.118;9.900;2023-10-13T08:14:00;14.02;;;6.38;;
17365;SDS011;8800;50.118;9.900;2023-10-13T08:16:36;12.15;;;6.55;;
17365;SDS011;8800;50.118;9.900;2023-10-13T08:19:14;14.48;;;6.43;;
17365;SDS011;8800;50.118;9.900;2023-10-13T08:21:42;18.80;;;6.78;;
17365;SDS011;8800;50.118;9.900;2023-10-13T08:24:19;13.43;;;6.05;;
17365;SDS011;8800;50.118;9.900;2023-10-13T08:26:54;12.82;;;5.80;;
17365;SDS011;8800;50.118;9.900;2023-10-13T08:29:37;14.93;;;5.60;;
17365;SDS011;8800;50.118;9.900;2023-10-13T08:32:40;12.80;;;5.55;;
17365;SDS011;8800;50.118;9.900;2023-10-13T08:35:22;11.88;;;5.57;;
17365;SDS011;8800;50.118;9.900;2023-10-13T08:37:50;12.05;;;5.40;;
17365;SDS011;8800;50.118;9.900;2023-10-13T08:40:33;12.98;;;5.30;;
17365;SDS011;8800;50.118;9.900;2023-10-13T08:43:42;13.93;;;5.03;;
17365;SDS011;8800;50.118;9.900;2023-10-13T08:46:10;11.45;;;5.20;;
17365;SDS011;8800;50.118;9.900;2023-10-13T08:48:51;15.63;;;5.43;;
17365;SDS011;8800;50.118;9.900;2023-10-13T08:51:29;11.63;;;5.13;;
17365;SDS011;8800;50.118;9.900;2023-10-13T08:54:09;13.93;;;5.60;;
17365;SDS011;8800;50.118;9.900;2023-10-13T08:56:45;14.13;;;4.68;;
17365;SDS011;8800;50.118;9.900;2023-10-13T08:59:20;13.98;;;5.78;;
17365;SDS011;8800;50.118;9.900;2023-10-13T09:01:58;13.68;;;4.82;;
17365;SDS011;8800;50.118;9.900;2023-10-13T09:04:41;10.45;;;4.55;;
17365;SDS011;8800;50.118;9.900;2023-10-13T09:07:09;8.80;;;4.90;;
17365;SDS011;8800;50.118;9.900;2023-10-13T09:09:47;11.88;;;5.05;;
17365;SDS011;8800;50.118;9.900;2023-10-13T09:12:26;13.32;;;5.25;;
17365;SDS011;8800;50.118;9.900;2023-10-13T09:15:04;11.23;;;5.15;;
17365;SDS011;8800;50.118;9.900;2023-10-13T09:17:31;17.13;;;4.95;;
17365;SDS011;8800;50.118;9.900;2023-10-13T09:20:01;12.23;;;5.32;;
17365;SDS011;8800;50.118;9.900;2023-10-13T09:22:49;9.55;;;4.80;;
17365;SDS011;8800;50.118;9.900;2023-10-13T09:25:21;12.18;;;5.13;;
17365;SDS011;8800;50.118;9.900;2023-10-13T09:27:48;10.25;;;4.70;;
17365;SDS011;8800;50.118;9.900;2023-10-13T09:30:17;9.95;;;5.20;;
17365;SDS011;8800;50.118;9.900;2023-10-13T09:32:48;19.48;;;5.15;;
17365;SDS011;8800;50.118;9.900;2023-10-13T09:35:26;10.55;;;5.07;;
17365;SDS011;8800;50.118;9.900;2023-10-13T09:37:52;11.55;;;4.47;;
17365;SDS011;8800;50.118;9.900;2023-10-13T09:40:21;14.43;;;4.75;;
17365;SDS011;8800;50.118;9.900;2023-10-13T09:43:01;15.18;;;4.85;;
17365;SDS011;8800;50.118;9.900;2023-10-13T09:45:33;10.77;;;4.63;;
17365;SDS011;8800;50.118;9.900;2023-10-13T09:48:01;10.35;;;4.60;;
17365;SDS011;8800;50.118;9.900;2023-10-13T09:50:33;12.02;;;4.90;;
17365;SDS011;8800;50.118;9.900;2023-10-13T09:53:02;10.02;;;4.53;;
17365;SDS011;8800;50.118;9.900;2023-10-13T09:55:32;12.75;;;4.55;;
17365;SDS011;8800;50.118;9.900;2023-10-13T09:58:04;9.23;;;4.63;;
17365;SDS011;8800;50.118;9.900;2023-10-13T10:00:38;14.52;;;5.10;;
17365;SDS011;8800;50.118;9.900;2023-10-13T10:03:21;10.32;;;4.50;;
17365;SDS011;8800;50.118;9.900;2023-10-13T10:06:04;8.43;;;4.50;;
17365;SDS011;8800;50.118;9.900;2023-10-13T10:08:31;13.35;;;4.45;;
17365;SDS011;8800;50.118;9.900;2023-10-13T10:11:07;9.45;;;4.68;;
17365;SDS011;8800;50.118;9.900;2023-10-13T10:13:43;12.45;;;4.82;;
17365;SDS011;8800;50.118;9.900;2023-10-13T10:16:11;8.13;;;4.40;;
17365;SDS011;8800;50.118;9.900;2023-10-13T10:18:45;11.65;;;4.65;;
17365;SDS011;8800;50.118;9.900;2023-10-13T10:21:12;13.00;;;4.72;;
17365;SDS011;8800;50.118;9.900;2023-10-13T10:23:41;10.48;;;4.68;;
17365;SDS011;8800;50.118;9.900;2023-10-13T10:26:10;13.13;;;4.65;;
17365;SDS011;8800;50.118;9.900;2023-10-13T10:28:41;9.73;;;4.85;;
17365;SDS011;8800;50.118;9.900;2023-10-13T10:31:10;9.82;;;4.43;;
17365;SDS011;8800;50.118;9.900;2023-10-13T10:33:40;10.18;;;4.88;;
17365;SDS011;8800;50.118;9.900;2023-10-13T10:36:08;11.45;;;4.57;;
17365;SDS011;8800;50.118;9.900;2023-10-13T10:38:51;16.40;;;4.70;;
17365;SDS011;8800;50.118;9.900;2023-10-13T10:41:18;11.20;;;4.68;;
17365;SDS011;8800;50.118;9.900;2023-10-13T10:43:56;8.60;;;4.05;;
17365;SDS011;8800;50.118;9.900;2023-10-13T10:46:28;10.23;;;3.97;;
17365;SDS011;8800;50.118;9.900;2023-10-13T10:49:03;8.35;;;4.10;;
17365;SDS011;8800;50.118;9.900;2023-10-13T10:51:33;6.72;;;4.00;;
17365;SDS011;8800;50.118;9.900;2023-10-13T10:54:17;13.73;;;4.25;;
17365;SDS011;8800;50.118;9.900;2023-10-13T10:56:44;9.48;;;4.32;;
17365;SDS011;8800;50.118;9.900;2023-10-13T10:59:19;9.73;;;4.63;;
17365;SDS011;8800;50.118;9.900;2023-10-13T11:01:50;9.00;;;4.30;;
17365;SDS011;8800;50.118;9.900;2023-10-13T11:04:17;7.50;;;4.65;;
17365;SDS011;8800;50.118;9.900;2023-10-13T11:06:50;12.15;;;4.03;;
17365;SDS011;8800;50.118;9.900;2023-10-13T11:09:23;11.65;;;4.47;;
17365;SDS011;8800;50.118;9.900;2023-10-13T11:11:57;8.85;;;4.53;;
17365;SDS011;8800;50.118;9.900;2023-10-13T11:14:30;9.07;;;4.25;;
17365;SDS011;8800;50.118;9.900;2023-10-13T11:16:57;9.00;;;4.50;;
17365;SDS011;8800;50.118;9.900;2023-10-13T11:19:33;11.82;;;4.47;;
17365;SDS011;8800;50.118;9.900;2023-10-13T11:22:09;7.03;;;4.00;;
17365;SDS011;8800;50.118;9.900;2023-10-13T11:24:39;7.65;;;4.10;;
17365;SDS011;8800;50.118;9.900;2023-10-13T11:27:13;11.25;;;4.32;;
17365;SDS011;8800;50.118;9.900;2023-10-13T11:29:43;7.22;;;4.10;;
17365;SDS011;8800;50.118;9.900;2023-10-13T11:32:17;6.75;;;3.92;;
17365;SDS011;8800;50.118;9.900;2023-10-13T11:34:45;12.98;;;3.90;;
17365;SDS011;8800;50.118;9.900;2023-10-13T11:37:17;6.65;;;3.85;;
17365;SDS011;8800;50.118;9.900;2023-10-13T11:40:03;9.63;;;3.85;;
17365;SDS011;8800;50.118;9.900;2023-10-13T11:42:35;11.25;;;4.43;;
17365;SDS011;8800;50.118;9.900;2023-10-13T11:45:03;7.07;;;4.38;;
17365;SDS011;8800;50.118;9.900;2023-10-13T11:47:53;8.40;;;3.92;;
17365;SDS011;8800;50.118;9.900;2023-10-13T11:50:24;12.27;;;4.60;;
17365;SDS011;8800;50.118;9.900;2023-10-13T11:52:58;9.80;;;4.15;;
17365;SDS011;8800;50.118;9.900;2023-10-13T11:55:25;9.20;;;4.20;;
17365;SDS011;8800;50.118;9.900;2023-10-13T11:57:52;10.05;;;3.67;;
17365;SDS011;8800;50.118;9.900;2023-10-13T12:00:20;6.88;;;4.03;;
17365;SDS011;8800;50.118;9.900;2023-10-13T12:03:12;10.65;;;3.78;;
17365;SDS011;8800;50.118;9.900;2023-10-13T12:05:56;10.20;;;4.50;;
17365;SDS011;8800;50.118;9.900;2023-10-13T12:08:43;9.30;;;4.03;;
17365;SDS011;8800;50.118;9.900;2023-10-13T12:11:14;8.95;;;3.67;;
17365;SDS011;8800;50.118;9.900;2023-10-13T12:13:55;9.35;;;4.15;;
17365;SDS011;8800;50.118;9.900;2023-10-13T12:16:23;10.30;;;3.95;;
17365;SDS011;8800;50.118;9.900;2023-10-13T12:18:59;12.45;;;3.90;;
17365;SDS011;8800;50.118;9.900;2023-10-13T12:21:26;8.90;;;4.10;;
17365;SDS011;8800;50.118;9.900;2023-10-13T12:23:54;8.70;;;3.90;;
17365;SDS011;8800;50.118;9.900;2023-10-13T12:26:21;12.20;;;4.20;;
17365;SDS011;8800;50.118;9.900;2023-10-13T12:28:57;8.52;;;3.83;;
17365;SDS011;8800;50.118;9.900;2023-10-13T12:31:33;7.35;;;3.78;;
17365;SDS011;8800;50.118;9.900;2023-10-13T12:34:04;9.25;;;3.60;;
17365;SDS011;8800;50.118;9.900;2023-10-13T12:36:39;7.03;;;3.60;;
17365;SDS011;8800;50.118;9.900;2023-10-13T12:39:18;9.70;;;4.22;;
17365;SDS011;8800;50.118;9.900;2023-10-13T12:42:10;13.98;;;4.28;;
17365;SDS011;8800;50.118;9.900;2023-10-13T12:44:54;14.73;;;3.80;;
17365;SDS011;8800;50.118;9.900;2023-10-13T12:47:44;6.38;;;3.40;;
17365;SDS011;8800;50.118;9.900;2023-10-13T12:50:28;7.90;;;3.70;;
17365;SDS011;8800;50.118;9.900;2023-10-13T12:53:09;10.63;;;3.70;;
17365;SDS011;8800;50.118;9.900;2023-10-13T12:55:39;10.77;;;4.03;;
17365;SDS011;8800;50.118;9.900;2023-10-13T12:58:06;8.93;;;3.67;;
17365;SDS011;8800;50.118;9.900;2023-10-13T13:00:33;8.82;;;3.70;;
17365;SDS011;8800;50.118;9.900;2023-10-13T13:03:01;9.43;;;3.63;;
17365;SDS011;8800;50.118;9.900;2023-10-13T13:05:36;10.18;;;4.10;;
17365;SDS011;8800;50.118;9.900;2023-10-13T13:08:09;10.52;;;4.15;;
17365;SDS011;8800;50.118;9.900;2023-10-13T13:10:37;6.30;;;3.50;;
17365;SDS011;8800;50.118;9.900;2023-10-13T13:13:04;12.18;;;3.90;;
17365;SDS011;8800;50.118;9.900;2023-10-13T13:15:31;7.78;;;3.72;;
17365;SDS011;8800;50.118;9.900;2023-10-13T13:17:58;8.00;;;4.03;;
17365;SDS011;8800;50.118;9.900;2023-10-13T13:20:36;8.40;;;3.42;;
17365;SDS011;8800;50.118;9.900;2023-10-13T13:23:04;10.55;;;3.85;;
17365;SDS011;8800;50.118;9.900;2023-10-13T13:25:31;11.02;;;4.00;;
17365;SDS011;8800;50.118;9.900;2023-10-13T13:27:58;9.68;;;3.78;;
17365;SDS011;8800;50.118;9.900;2023-10-13T13:30:30;7.85;;;3.78;;
17365;SDS011;8800;50.118;9.900;2023-10-13T13:32:59;8.50;;;3.95;;
17365;SDS011;8800;50.118;9.900;2023-10-13T13:35:29;6.88;;;3.55;;
17365;SDS011;8800;50.118;9.900;2023-10-13T13:38:01;8.25;;;3.90;;
17365;SDS011;8800;50.118;9.900;2023-10-13T13:40:36;10.02;;;4.10;;
17365;SDS011;8800;50.118;9.900;2023-10-13T13:43:04;11.15;;;3.88;;
17365;SDS011;8800;50.118;9.900;2023-10-13T13:45:31;8.25;;;3.97;;
17365;SDS011;8800;50.118;9.900;2023-10-13T13:47:59;8.65;;;3.65;;
17365;SDS011;8800;50.118;9.900;2023-10-13T13:50:33;5.20;;;3.72;;
17365;SDS011;8800;50.118;9.900;2023-10-13T13:53:07;6.55;;;3.45;;
17365;SDS011;8800;50.118;9.900;2023-10-13T13:55:36;6.07;;;3.15;;
17365;SDS011;8800;50.118;9.900;2023-10-13T13:58:05;10.07;;;3.80;;
17365;SDS011;8800;50.118;9.900;2023-10-13T14:00:33;10.15;;;3.60;;
17365;SDS011;8800;50.118;9.900;2023-10-13T14:03:03;9.20;;;3.65;;
17365;SDS011;8800;50.118;9.900;2023-10-13T14:05:30;7.07;;;3.95;;
17365;SDS011;8800;50.118;9.900;2023-10-13T14:07:57;8.55;;;3.30;;
17365;SDS011;8800;50.118;9.900;2023-10-13T14:10:24;5.85;;;3.35;;
17365;SDS011;8800;50.118;9.900;2023-10-13T14:13:20;8.13;;;3.88;;
17365;SDS011;8800;50.118;9.900;2023-10-13T14:15:47;13.35;;;3.90;;
17365;SDS011;8800;50.118;9.900;2023-10-13T14:18:14;9.93;;;3.85;;
17365;SDS011;8800;50.118;9.900;2023-10-13T14:20:41;7.72;;;3.53;;
17365;SDS011;8800;50.118;9.900;2023-10-13T14:23:07;13.07;;;3.50;;
17365;SDS011;8800;50.118;9.900;2023-10-13T14:25:38;8.05;;;3.50;;
17365;SDS011;8800;50.118;9.900;2023-10-13T14:28:10;9.80;;;3.58;;
17365;SDS011;8800;50.118;9.900;2023-10-13T14:30:42;7.07;;;3.30;;
17365;SDS011;8800;50.118;9.900;2023-10-13T14:33:09;6.40;;;3.28;;
17365;SDS011;8800;50.118;9.900;2023-10-13T14:35:36;8.23;;;3.17;;
17365;SDS011;8800;50.118;9.900;2023-10-13T14:38:03;5.22;;;3.22;;
17365;SDS011;8800;50.118;9.900;2023-10-13T14:40:30;10.90;;;3.28;;
17365;SDS011;8800;50.118;9.900;2023-10-13T14:42:58;11.00;;;3.60;;
17365;SDS011;8800;50.118;9.900;2023-10-13T14:45:24;7.32;;;3.33;;
17365;SDS011;8800;50.118;9.900;2023-10-13T14:47:51;10.10;;;3.70;;
17365;SDS011;8800;50.118;9.900;2023-10-13T14:50:18;6.32;;;3.28;;
17365;SDS011;8800;50.118;9.900;2023-10-13T14:52:46;8.32;;;3.45;;
17365;SDS011;8800;50.118;9.900;2023-10-13T14:55:13;9.48;;;3.70;;
17365;SDS011;8800;50.118;9.900;2023-10-13T14:57:45;6.93;;;3.45;;
17365;SDS011;8800;50.118;9.900;2023-10-13T15:00:14;7.90;;;3.30;;
17365;SDS011;8800;50.118;9.900;2023-10-13T15:02:43;7.25;;;3.55;;
17365;SDS011;8800;50.118;9.900;2023-10-13T15:05:10;12.57;;;3.72;;
17365;SDS011;8800;50.118;9.900;2023-10-13T15:07:42;10.23;;;3.85;;
17365;SDS011;8800;50.118;9.900;2023-10-13T15:10:10;11.90;;;3.97;;
17365;SDS011;8800;50.118;9.900;2023-10-13T15:12:40;6.53;;;3.22;;
17365;SDS011;8800;50.118;9.900;2023-10-13T15:15:07;9.13;;;3.30;;
17365;SDS011;8800;50.118;9.900;2023-10-13T15:17:40;10.30;;;3.55;;
17365;SDS011;8800;50.118;9.900;2023-10-13T15:20:07;7.63;;;3.47;;
17365;SDS011;8800;50.118;9.900;2023-10-13T15:22:35;13.93;;;4.10;;
17365;SDS011;8800;50.118;9.900;2023-10-13T15:25:04;10.48;;;3.42;;